createdAt,value
2024-03-18T00:00:44.185Z,72.62
2024-03-18T00:03:32.275Z,72.82
2024-03-18T00:06:00.409Z,72.78
2024-03-18T00:08:28.766Z,72.55
2024-03-18T00:10:57.836Z,72.36
2024-03-18T00:13:26.182Z,72.07
2024-03-18T00:15:54.373Z,71.94
2024-03-18T00:18:22.741Z,71.88
2024-03-18T00:20:51.286Z,72.28
2024-03-18T00:23:19.230Z,70.94
2024-03-18T00:25:47.597Z,71.47
2024-03-18T00:28:15.740Z,71.44
2024-03-18T00:30:46.020Z,70.27
2024-03-18T00:33:15.162Z,71.23
2024-03-18T00:35:43.304Z,71.64
2024-03-18T00:38:11.272Z,71.73
2024-03-18T00:40:39.439Z,72.02
2024-03-18T00:43:08.459Z,71.62
2024-03-18T00:45:36.863Z,71.19
2024-03-18T00:48:07.058Z,71.81
2024-03-18T00:50:35.170Z,71.47
2024-03-18T00:53:03.570Z,71.36
2024-03-18T00:55:34.970Z,70.88
2024-03-18T00:58:04.910Z,71.53
2024-03-18T01:00:33.644Z,71.94
2024-03-18T01:03:01.951Z,72.35
2024-03-18T01:05:30.634Z,71.92
2024-03-18T01:07:58.983Z,71.29
2024-03-18T01:10:27.078Z,71.55
2024-03-18T01:12:57.955Z,71.65
2024-03-18T01:15:26.806Z,71.82
2024-03-18T01:17:54.972Z,71.72
2024-03-18T01:20:23.628Z,71.35
2024-03-18T01:22:52.283Z,71.37
2024-03-18T01:25:20.619Z,71.28
2024-03-18T01:27:49.172Z,71.51
2024-03-18T01:30:17.332Z,71.34
2024-03-18T01:32:45.518Z,70.65
2024-03-18T01:35:13.754Z,70.45
2024-03-18T01:37:42.195Z,70.40
2024-03-18T01:40:12.203Z,69.92
2024-03-18T01:42:40.831Z,70.56
2024-03-18T01:45:10.570Z,70.54
2024-03-18T01:47:40.166Z,70.75
2024-03-18T01:50:10.850Z,70.80
2024-03-18T01:52:39.575Z,70.98
2024-03-18T01:55:10.104Z,70.74
2024-03-18T01:57:38.837Z,70.48
2024-03-18T02:00:25.533Z,71.05
2024-03-18T02:02:53.688Z,71.68
2024-03-18T02:05:22.884Z,71.18
2024-03-18T02:07:51.095Z,71.62
2024-03-18T02:10:20.366Z,71.84
2024-03-18T02:12:48.817Z,72.42
2024-03-18T02:15:17.894Z,72.39
2024-03-18T02:17:46.017Z,72.48
2024-03-18T02:20:14.420Z,72.20
2024-03-18T02:22:42.584Z,71.70
2024-03-18T02:25:10.823Z,71.25
2024-03-18T02:27:38.921Z,71.30
2024-03-18T02:30:09.624Z,71.69
2024-03-18T02:32:38.774Z,71.47
2024-03-18T02:35:09.289Z,70.86
2024-03-18T02:37:37.399Z,71.65
2024-03-18T02:40:09.520Z,71.48
2024-03-18T02:42:38.578Z,71.41
2024-03-18T02:45:12.094Z,71.33
2024-03-18T02:47:41.867Z,71.72
2024-03-18T02:50:11.493Z,72.03
2024-03-18T02:52:40.797Z,71.79
2024-03-18T02:55:09.685Z,72.00
2024-03-18T02:57:38.229Z,71.85
2024-03-18T03:00:07.386Z,71.89
2024-03-18T03:02:35.580Z,71.86
2024-03-18T03:05:05.290Z,72.30
2024-03-18T03:07:33.556Z,72.65
2024-03-18T03:10:05.103Z,72.64
2024-03-18T03:12:33.349Z,72.37
2024-03-18T03:15:02.321Z,72.37
2024-03-18T03:17:30.544Z,72.82
2024-03-18T03:19:58.834Z,72.64
2024-03-18T03:22:26.913Z,72.93
2024-03-18T03:24:55.532Z,72.45
2024-03-18T03:27:24.160Z,72.90
2024-03-18T03:29:52.464Z,72.66
2024-03-18T03:32:20.838Z,72.83
2024-03-18T03:34:49.026Z,72.87
2024-03-18T03:37:20.080Z,73.05
2024-03-18T03:39:48.372Z,73.34
2024-03-18T03:42:16.711Z,73.25
2024-03-18T03:44:44.665Z,73.27
2024-03-18T03:47:13.541Z,73.58
2024-03-18T03:49:41.657Z,73.43
2024-03-18T03:52:09.812Z,73.31
2024-03-18T03:54:38.187Z,73.77
2024-03-18T03:57:06.567Z,73.43
2024-03-18T03:59:34.844Z,73.22
2024-03-18T04:02:05.029Z,73.38
2024-03-18T04:04:33.305Z,73.59
2024-03-18T04:07:01.582Z,73.89
2024-03-18T04:09:29.879Z,74.20
2024-03-18T04:11:59.105Z,73.60
2024-03-18T04:14:27.687Z,73.26
2024-03-18T04:16:56.555Z,73.67
2024-03-18T04:19:25.217Z,73.65
2024-03-18T04:21:53.427Z,73.69
2024-03-18T04:24:21.548Z,74.13
2024-03-18T04:26:50.327Z,74.40
2024-03-18T04:29:18.500Z,74.65
2024-03-18T04:31:47.028Z,74.47
2024-03-18T04:34:15.119Z,74.08
2024-03-18T04:36:43.429Z,74.45
2024-03-18T04:39:12.340Z,74.50
2024-03-18T04:41:40.789Z,74.28
2024-03-18T04:44:09.132Z,74.04
2024-03-18T04:46:37.334Z,74.73
2024-03-18T04:49:05.395Z,74.09
2024-03-18T04:51:34.080Z,73.74
2024-03-18T04:54:02.160Z,73.70
2024-03-18T04:56:32.909Z,74.14
2024-03-18T04:59:01.266Z,74.27
2024-03-18T05:01:29.756Z,73.96
2024-03-18T05:03:57.887Z,74.04
2024-03-18T05:06:27.334Z,74.20
2024-03-18T05:08:55.979Z,73.81
2024-03-18T05:11:25.232Z,73.66
2024-03-18T05:13:54.072Z,73.21
2024-03-18T05:16:24.700Z,73.68
2024-03-18T05:18:52.992Z,74.21
2024-03-18T05:21:21.298Z,73.31
2024-03-18T05:23:50.684Z,72.94
2024-03-18T05:26:18.828Z,73.26
2024-03-18T05:28:50.655Z,72.49
2024-03-18T05:31:20.557Z,71.51
2024-03-18T05:33:48.885Z,71.48
2024-03-18T05:36:17.417Z,71.13
2024-03-18T05:38:45.925Z,71.05
2024-03-18T05:41:15.246Z,71.23
2024-03-18T05:43:43.340Z,70.10
2024-03-18T05:46:14.012Z,70.02
2024-03-18T05:48:48.429Z,70.51
2024-03-18T05:51:17.411Z,70.47
2024-03-18T05:53:46.359Z,70.43
2024-03-18T05:56:15.226Z,69.71
2024-03-18T05:58:43.993Z,70.70
2024-03-18T06:01:13.853Z,70.40
2024-03-18T06:03:43.716Z,69.63
2024-03-18T06:06:12.998Z,70.19
2024-03-18T06:08:41.308Z,70.41
2024-03-18T06:11:09.503Z,69.82
2024-03-18T06:13:37.869Z,70.15
2024-03-18T06:16:06.148Z,69.94
2024-03-18T06:18:34.040Z,69.62
2024-03-18T06:21:02.162Z,68.75
2024-03-18T06:23:34.435Z,69.55
2024-03-18T06:26:04.361Z,69.94
2024-03-18T06:28:37.338Z,70.12
2024-03-18T06:31:07.165Z,69.15
2024-03-18T06:33:35.705Z,69.14
2024-03-18T06:36:10.672Z,68.77
2024-03-18T06:38:41.933Z,68.39
2024-03-18T06:41:11.241Z,68.61
2024-03-18T06:43:40.387Z,68.60
2024-03-18T06:46:13.215Z,67.60
2024-03-18T06:48:41.605Z,67.98
2024-03-18T06:51:15.997Z,68.14
2024-03-18T06:53:44.283Z,67.11
2024-03-18T06:56:13.254Z,66.59
2024-03-18T06:58:42.133Z,66.44
2024-03-18T07:01:12.449Z,66.78
2024-03-18T07:03:43.000Z,67.12
2024-03-18T07:06:13.346Z,63.55
2024-03-18T07:08:41.885Z,65.56
2024-03-18T07:11:10.458Z,64.95
2024-03-18T07:13:40.145Z,65.95
2024-03-18T07:16:13.711Z,64.69
2024-03-18T07:18:43.557Z,64.84
2024-03-18T07:21:12.330Z,64.47
2024-03-18T07:23:41.041Z,63.44
2024-03-18T07:26:09.691Z,63.08
2024-03-18T07:28:38.528Z,62.67
2024-03-18T07:31:09.695Z,64.01
2024-03-18T07:33:38.142Z,63.48
2024-03-18T07:36:06.850Z,62.58
2024-03-18T07:38:35.184Z,62.96
2024-03-18T07:41:04.704Z,63.23
2024-03-18T07:43:33.203Z,63.37
2024-03-18T07:46:02.053Z,63.03
2024-03-18T07:48:30.314Z,63.53
2024-03-18T07:50:58.924Z,62.46
2024-03-18T07:53:28.321Z,62.50
2024-03-18T07:56:01.928Z,62.26
2024-03-18T07:58:30.399Z,62.39
2024-03-18T08:00:59.229Z,63.25
2024-03-18T08:03:31.267Z,61.26
2024-03-18T08:06:09.397Z,61.80
2024-03-18T08:08:38.235Z,62.83
2024-03-18T08:11:08.110Z,61.43
2024-03-18T08:13:36.741Z,61.73
2024-03-18T08:16:06.451Z,61.09
2024-03-18T08:18:37.079Z,60.51
2024-03-18T08:21:23.542Z,59.54
2024-03-18T08:23:54.521Z,60.01
2024-03-18T08:26:24.965Z,59.63
2024-03-18T08:28:53.764Z,59.22
2024-03-18T08:31:22.305Z,60.22
2024-03-18T08:34:04.404Z,56.96
2024-03-18T08:36:34.641Z,56.64
2024-03-18T08:39:04.653Z,57.51
2024-03-18T08:41:33.472Z,58.33
2024-03-18T08:44:01.778Z,55.61
2024-03-18T08:46:30.499Z,56.16
2024-03-18T08:49:01.324Z,53.59
2024-03-18T08:51:31.954Z,56.55
2024-03-18T08:54:00.583Z,57.07
2024-03-18T08:56:31.255Z,57.11
2024-03-18T08:59:02.954Z,54.53
2024-03-18T09:01:33.889Z,55.32
2024-03-18T09:04:04.735Z,53.53
2024-03-18T09:06:38.229Z,54.93
2024-03-18T09:09:07.480Z,55.54
2024-03-18T09:11:35.658Z,55.11
2024-03-18T09:14:06.558Z,55.06
2024-03-18T09:16:35.137Z,54.15
2024-03-18T09:19:03.958Z,52.21
2024-03-18T09:21:32.366Z,50.84
2024-03-18T09:24:00.861Z,51.35
2024-03-18T09:26:29.917Z,49.09
2024-03-18T09:28:59.380Z,47.69
2024-03-18T09:31:28.687Z,46.53
2024-03-18T09:33:58.966Z,48.23
2024-03-18T09:36:28.514Z,45.44
2024-03-18T09:38:56.662Z,45.59
2024-03-18T09:41:28.001Z,45.22
2024-03-18T09:43:57.559Z,44.49
2024-03-18T09:46:30.057Z,47.18
2024-03-18T09:49:00.040Z,43.42
2024-03-18T09:51:32.680Z,45.08
2024-03-18T09:54:02.297Z,42.45
2024-03-18T09:56:31.314Z,45.17
2024-03-18T09:58:59.592Z,46.44
2024-03-18T10:01:29.942Z,46.44
2024-03-18T10:03:59.830Z,46.15
2024-03-18T10:06:28.798Z,46.09
2024-03-18T10:08:59.865Z,46.73
2024-03-18T10:11:29.962Z,47.04
2024-03-18T10:13:59.505Z,47.02
2024-03-18T10:16:29.297Z,45.85
2024-03-18T10:18:57.568Z,47.26
2024-03-18T10:21:27.799Z,46.85
2024-03-18T10:23:57.158Z,46.31
2024-03-18T10:26:26.656Z,45.03
2024-03-18T10:28:55.350Z,47.70
2024-03-18T10:31:24.288Z,47.34
2024-03-18T10:33:55.516Z,47.58
2024-03-18T10:36:31.240Z,47.70
2024-03-18T10:39:10.135Z,46.93
2024-03-18T10:41:40.723Z,46.97
2024-03-18T10:44:24.407Z,47.92
2024-03-18T10:46:55.962Z,47.68
2024-03-18T10:49:24.526Z,47.56
2024-03-18T10:51:54.225Z,46.59
2024-03-18T10:54:25.055Z,44.75
2024-03-18T10:56:54.335Z,46.00
2024-03-18T10:59:24.596Z,45.99
2024-03-18T11:01:55.505Z,46.30
2024-03-18T11:05:08.342Z,46.04
2024-03-18T11:07:38.696Z,46.18
2024-03-18T11:10:14.753Z,46.71
2024-03-18T11:12:43.420Z,45.86
2024-03-18T11:15:11.068Z,47.66
2024-03-18T11:17:50.662Z,46.93
2024-03-18T11:20:21.743Z,46.49
2024-03-18T11:22:56.456Z,45.24
2024-03-18T11:25:27.570Z,45.31
2024-03-18T11:27:56.535Z,44.91
2024-03-18T11:30:26.514Z,45.20
2024-03-18T11:32:54.315Z,45.85
2024-03-18T11:35:22.088Z,45.17
2024-03-18T11:37:49.762Z,45.77
2024-03-18T11:40:19.459Z,45.31
2024-03-18T11:42:47.321Z,45.65
2024-03-18T11:45:22.708Z,44.99
2024-03-18T11:48:05.589Z,44.27
2024-03-18T11:50:37.023Z,43.18
2024-03-18T11:53:08.015Z,43.44
2024-03-18T11:55:40.832Z,44.39
2024-03-18T11:58:13.576Z,42.93
2024-03-18T12:00:44.597Z,43.75
2024-03-18T12:03:16.204Z,45.18
2024-03-18T12:05:46.893Z,44.67
2024-03-18T12:08:25.622Z,45.11
2024-03-18T12:10:55.549Z,44.78
2024-03-18T12:13:44.659Z,43.81
2024-03-18T12:16:15.037Z,42.47
2024-03-18T12:18:44.792Z,43.63
2024-03-18T12:21:12.249Z,44.48
2024-03-18T12:23:57.646Z,43.75
2024-03-18T12:26:44.215Z,43.71
2024-03-18T12:29:23.206Z,43.55
2024-03-18T12:31:53.176Z,41.90
2024-03-18T12:34:20.471Z,41.17
2024-03-18T12:36:48.165Z,41.92
2024-03-18T12:39:16.501Z,43.38
2024-03-18T12:41:43.709Z,42.56
2024-03-18T12:44:12.147Z,43.85
2024-03-18T12:46:39.584Z,43.42
2024-03-18T12:49:09.951Z,43.21
2024-03-18T12:51:37.128Z,42.89
2024-03-18T12:54:08.211Z,43.22
2024-03-18T12:56:36.515Z,44.11
2024-03-18T12:59:04.894Z,44.05
2024-03-18T13:01:32.731Z,43.74
2024-03-18T13:04:00.501Z,44.58
2024-03-18T13:06:28.012Z,44.34
2024-03-18T13:08:56.578Z,44.71
2024-03-18T13:11:24.032Z,44.80
2024-03-18T13:13:51.122Z,45.37
2024-03-18T13:16:18.236Z,44.70
2024-03-18T13:18:46.919Z,43.75
2024-03-18T13:21:14.360Z,43.62
2024-03-18T13:23:42.056Z,43.82
2024-03-18T13:26:10.857Z,43.32
2024-03-18T13:28:38.675Z,44.15
2024-03-18T13:31:22.876Z,44.57
2024-03-18T13:33:53.435Z,45.28
2024-03-18T13:36:21.074Z,45.21
2024-03-18T13:38:48.850Z,44.92
2024-03-18T13:41:17.602Z,44.58
2024-03-18T13:43:44.847Z,44.76
2024-03-18T13:46:12.447Z,45.31
2024-03-18T13:48:40.126Z,46.11
2024-03-18T13:51:12.647Z,46.21
2024-03-18T13:53:41.155Z,46.75
2024-03-18T13:56:08.401Z,45.86
2024-03-18T13:58:37.152Z,46.59
2024-03-18T14:01:10.075Z,46.82
2024-03-18T14:03:38.561Z,46.52
2024-03-18T14:06:07.200Z,46.24
2024-03-18T14:08:35.605Z,46.32
2024-03-18T14:11:04.688Z,46.13
2024-03-18T14:13:35.225Z,45.71
2024-03-18T14:16:05.760Z,46.26
2024-03-18T14:18:36.073Z,46.62
2024-03-18T14:21:04.207Z,46.38
2024-03-18T14:23:31.143Z,46.75
2024-03-18T14:25:58.683Z,46.37
2024-03-18T14:28:26.795Z,46.65
2024-03-18T14:30:53.828Z,46.74
2024-03-18T14:33:21.206Z,46.14
2024-03-18T14:35:48.868Z,46.62
2024-03-18T14:38:16.195Z,45.84
2024-03-18T14:40:43.992Z,45.98
2024-03-18T14:43:11.634Z,46.58
2024-03-18T14:45:41.095Z,46.25
2024-03-18T14:48:14.110Z,46.34
2024-03-18T14:50:42.963Z,46.87
2024-03-18T14:53:10.492Z,46.70
2024-03-18T14:55:38.938Z,46.78
2024-03-18T14:58:08.783Z,47.18
2024-03-18T15:00:36.424Z,47.51
2024-03-18T15:03:03.946Z,47.19
2024-03-18T15:05:31.057Z,46.87
2024-03-18T15:07:58.443Z,46.15
2024-03-18T15:10:25.869Z,46.41
2024-03-18T15:12:53.222Z,46.35
2024-03-18T15:15:20.548Z,47.00
2024-03-18T15:17:56.494Z,46.40
2024-03-18T15:20:23.458Z,46.46
2024-03-18T15:22:50.510Z,46.58
2024-03-18T15:25:37.706Z,46.88
2024-03-18T15:28:10.197Z,47.08
2024-03-18T15:30:38.739Z,47.25
2024-03-18T15:33:08.045Z,47.37
2024-03-18T15:35:38.114Z,47.02
2024-03-18T15:38:05.353Z,47.34
2024-03-18T15:40:33.709Z,47.69
2024-03-18T15:43:01.435Z,47.99
2024-03-18T15:45:28.802Z,48.19
2024-03-18T15:47:55.741Z,48.54
2024-03-18T15:50:22.962Z,47.97
2024-03-18T15:52:51.629Z,47.79
2024-03-18T15:55:18.520Z,48.02
2024-03-18T15:57:45.899Z,48.31
2024-03-18T16:00:20.415Z,48.21
2024-03-18T16:02:47.526Z,48.33
2024-03-18T16:05:15.219Z,48.61
2024-03-18T16:07:43.013Z,48.83
2024-03-18T16:10:11.104Z,48.82
2024-03-18T16:12:38.871Z,48.77
2024-03-18T16:15:10.480Z,48.67
2024-03-18T16:17:38.925Z,48.75
2024-03-18T16:20:11.815Z,48.58
2024-03-18T16:22:39.058Z,48.68
2024-03-18T16:25:06.401Z,48.60
2024-03-18T16:27:33.418Z,48.78
2024-03-18T16:30:00.915Z,49.13
2024-03-18T16:32:28.203Z,49.43
2024-03-18T16:34:55.158Z,49.54
2024-03-18T16:37:23.237Z,49.54
2024-03-18T16:39:50.185Z,49.59
2024-03-18T16:42:18.389Z,49.66
2024-03-18T16:44:46.072Z,49.85
2024-03-18T16:47:13.160Z,50.39
2024-03-18T16:49:40.697Z,50.01
2024-03-18T16:52:07.975Z,49.82
2024-03-18T16:54:36.236Z,49.98
2024-03-18T16:57:04.525Z,49.93
2024-03-18T16:59:31.772Z,50.04
2024-03-18T17:01:59.006Z,50.17
2024-03-18T17:04:26.238Z,50.18
2024-03-18T17:06:54.239Z,50.33
2024-03-18T17:09:25.387Z,50.10
2024-03-18T17:11:52.345Z,49.95
2024-03-18T17:14:23.254Z,50.22
2024-03-18T17:16:51.144Z,50.70
2024-03-18T17:19:18.720Z,50.66
2024-03-18T17:21:50.039Z,50.54
2024-03-18T17:24:17.460Z,50.50
2024-03-18T17:26:44.936Z,50.27
2024-03-18T17:29:12.985Z,50.10
2024-03-18T17:31:42.377Z,50.26
2024-03-18T17:34:10.266Z,50.48
2024-03-18T17:37:03.447Z,51.07
2024-03-18T17:39:24.650Z,50.75
2024-03-18T17:41:51.642Z,50.91
2024-03-18T17:44:20.248Z,51.15
2024-03-18T17:46:49.987Z,51.27
2024-03-18T17:49:16.986Z,51.18
2024-03-18T17:51:44.059Z,51.22
2024-03-18T17:54:11.077Z,51.44
2024-03-18T17:56:38.467Z,51.29
2024-03-18T17:59:09.875Z,50.98
2024-03-18T18:01:39.839Z,50.93
2024-03-18T18:04:06.759Z,50.77
2024-03-18T18:06:34.116Z,50.86
2024-03-18T18:09:06.045Z,50.78
2024-03-18T18:11:33.997Z,50.88
2024-03-18T18:14:01.017Z,50.94
2024-03-18T18:16:28.235Z,50.33
2024-03-18T18:18:55.496Z,50.62
2024-03-18T18:21:22.787Z,50.08
2024-03-18T18:23:53.903Z,49.79
2024-03-18T18:26:21.064Z,50.14
2024-03-18T18:28:48.690Z,50.00
2024-03-18T18:31:15.663Z,50.16
2024-03-18T18:33:44.420Z,50.16
2024-03-18T18:36:12.181Z,50.19
2024-03-18T18:38:44.237Z,49.74
2024-03-18T18:41:11.799Z,50.04
2024-03-18T18:43:39.003Z,50.05
2024-03-18T18:46:06.148Z,50.17
2024-03-18T18:48:37.265Z,49.17
2024-03-18T18:51:06.881Z,49.33
2024-03-18T18:53:38.437Z,49.77
2024-03-18T18:56:06.366Z,49.30
2024-03-18T18:58:33.862Z,49.78
2024-03-18T19:01:01.116Z,48.99
2024-03-18T19:03:28.158Z,48.86
2024-03-18T19:05:55.491Z,47.87
2024-03-18T19:08:22.463Z,48.24
2024-03-18T19:10:49.445Z,48.82
2024-03-18T19:13:20.545Z,48.92
2024-03-18T19:15:48.128Z,48.91
2024-03-18T19:18:15.427Z,48.65
2024-03-18T19:20:43.059Z,49.35
2024-03-18T19:23:10.153Z,49.34
2024-03-18T19:25:37.320Z,48.94
2024-03-18T19:28:09.841Z,48.26
2024-03-18T19:30:39.613Z,47.89
2024-03-18T19:33:07.506Z,47.79
2024-03-18T19:35:38.005Z,48.56
2024-03-18T19:38:05.034Z,47.95
2024-03-18T19:40:32.153Z,47.92
2024-03-18T19:43:01.006Z,47.86
2024-03-18T19:45:28.551Z,47.80
2024-03-18T19:47:55.714Z,47.61
2024-03-18T19:50:22.897Z,47.44
2024-03-18T19:52:50.548Z,47.45
2024-03-18T19:55:18.364Z,47.54
2024-03-18T19:57:46.133Z,47.76
2024-03-18T20:00:13.742Z,47.50
2024-03-18T20:02:42.431Z,48.10
2024-03-18T20:05:13.817Z,47.43
2024-03-18T20:07:41.130Z,47.31
2024-03-18T20:10:10.235Z,47.81
2024-03-18T20:12:44.924Z,47.32
2024-03-18T20:15:14.265Z,46.87
2024-03-18T20:17:41.464Z,47.54
2024-03-18T20:20:11.462Z,47.39
2024-03-18T20:22:43.696Z,47.42
2024-03-18T20:25:12.864Z,47.19
2024-03-18T20:27:46.805Z,47.54
2024-03-18T20:30:19.840Z,46.99
2024-03-18T20:32:47.716Z,47.53
2024-03-18T20:35:15.209Z,48.20
2024-03-18T20:37:46.804Z,47.60
2024-03-18T20:40:20.329Z,47.88
2024-03-18T20:42:47.611Z,48.50
2024-03-18T20:45:16.475Z,48.62
2024-03-18T20:47:43.829Z,48.09
2024-03-18T20:50:12.920Z,48.15
2024-03-18T20:52:41.559Z,48.39
2024-03-18T20:55:15.326Z,48.44
2024-03-18T20:57:43.706Z,48.63
2024-03-18T21:00:17.878Z,49.35
2024-03-18T21:02:46.158Z,49.45
2024-03-18T21:05:14.968Z,49.54
2024-03-18T21:07:49.852Z,49.77
2024-03-18T21:10:19.920Z,49.60
2024-03-18T21:12:49.205Z,49.83
2024-03-18T21:15:17.484Z,50.39
2024-03-18T21:17:45.016Z,50.28
2024-03-18T21:20:14.545Z,50.24
2024-03-18T21:22:45.688Z,50.74
2024-03-18T21:25:14.133Z,50.73
2024-03-18T21:27:42.777Z,51.10
2024-03-18T21:30:10.485Z,50.86
2024-03-18T21:32:38.590Z,51.40
2024-03-18T21:35:06.689Z,51.08
2024-03-18T21:37:34.257Z,51.62
2024-03-18T21:40:01.766Z,51.61
2024-03-18T21:42:29.033Z,51.49
2024-03-18T21:44:56.537Z,51.63
2024-03-18T21:47:23.857Z,51.93
2024-03-18T21:49:50.975Z,52.05
2024-03-18T21:52:18.028Z,52.27
2024-03-18T21:54:45.916Z,51.91
2024-03-18T21:57:13.509Z,52.38
2024-03-18T21:59:40.823Z,52.23
2024-03-18T22:02:08.302Z,51.76
2024-03-18T22:04:35.530Z,51.57
2024-03-18T22:07:04.755Z,51.67
2024-03-18T22:09:35.919Z,51.55
2024-03-18T22:12:04.794Z,51.22
2024-03-18T22:14:38.043Z,51.73
2024-03-18T22:17:11.784Z,51.83
2024-03-18T22:19:38.869Z,51.84
2024-03-18T22:22:06.229Z,51.61
2024-03-18T22:24:33.157Z,51.62
2024-03-18T22:27:00.237Z,51.93
2024-03-18T22:29:27.327Z,51.59
2024-03-18T22:31:54.444Z,52.02
2024-03-18T22:34:21.473Z,51.93
2024-03-18T22:36:48.699Z,52.14
2024-03-18T22:39:16.113Z,52.20
2024-03-18T22:41:43.027Z,51.72
2024-03-18T22:44:09.927Z,52.25
2024-03-18T22:46:37.678Z,52.23
2024-03-18T22:49:05.022Z,52.65
2024-03-18T22:51:33.116Z,53.15
2024-03-18T22:54:00.167Z,53.09
2024-03-18T22:56:27.760Z,53.19
2024-03-18T22:58:54.928Z,53.20
2024-03-18T23:01:23.278Z,52.76
2024-03-18T23:03:51.511Z,52.77
2024-03-18T23:06:18.944Z,52.88
2024-03-18T23:08:46.202Z,53.01
2024-03-18T23:11:13.152Z,52.98
2024-03-18T23:13:40.107Z,52.94
2024-03-18T23:16:07.458Z,52.57
2024-03-18T23:18:34.463Z,52.65
2024-03-18T23:21:04.580Z,52.60
2024-03-18T23:23:31.803Z,52.42
2024-03-18T23:26:09.787Z,52.66
2024-03-18T23:28:38.423Z,52.72
2024-03-18T23:31:06.078Z,52.66
2024-03-18T23:33:33.919Z,52.50
2024-03-18T23:36:03.622Z,52.83
2024-03-18T23:38:32.782Z,52.96
2024-03-18T23:41:00.102Z,52.69
2024-03-18T23:43:30.652Z,53.25
2024-03-18T23:45:57.804Z,53.68
2024-03-18T23:48:24.689Z,54.01
2024-03-18T23:50:51.798Z,53.58
2024-03-18T23:53:20.142Z,54.32
2024-03-18T23:55:47.215Z,53.86
2024-03-18T23:58:14.559Z,54.25
